createdAt,value
2017-09-30T00:00:18.681Z,15.40
2017-09-30T00:02:44.910Z,15.40
2017-09-30T00:05:11.555Z,15.40
2017-09-30T00:07:37.793Z,15.40
2017-09-30T00:12:58.222Z,15.40
2017-09-30T00:15:24.528Z,15.40
2017-09-30T00:17:51.587Z,15.30
2017-09-30T00:20:19.015Z,15.30
2017-09-30T00:22:45.312Z,15.30
2017-09-30T00:25:11.567Z,15.30
2017-09-30T00:27:38.206Z,15.30
2017-09-30T00:30:04.424Z,15.30
2017-09-30T00:32:30.713Z,15.30
2017-09-30T00:34:57.332Z,15.30
2017-09-30T00:37:24.346Z,15.30
2017-09-30T00:39:50.579Z,15.30
2017-09-30T00:42:17.203Z,15.30
2017-09-30T00:44:43.470Z,15.40
2017-09-30T00:47:10.493Z,15.40
2017-09-30T00:49:37.177Z,15.40
2017-09-30T00:52:03.477Z,15.40
2017-09-30T00:54:30.506Z,15.40
2017-09-30T00:56:57.167Z,15.40
2017-09-30T00:59:23.471Z,15.40
2017-09-30T01:01:49.794Z,15.40
2017-09-30T01:04:16.453Z,15.40
2017-09-30T01:06:42.707Z,15.40
2017-09-30T01:09:09.745Z,15.40
2017-09-30T01:11:37.226Z,15.40
2017-09-30T01:14:03.476Z,15.40
2017-09-30T01:16:29.756Z,15.40
2017-09-30T01:18:56.391Z,15.40
2017-09-30T01:21:22.734Z,15.40
2017-09-30T01:23:49.763Z,15.30
2017-09-30T01:26:16.437Z,15.40
2017-09-30T01:28:42.769Z,15.40
2017-09-30T01:31:09.052Z,15.40
2017-09-30T01:33:35.737Z,15.40
2017-09-30T01:36:02.101Z,15.40
2017-09-30T01:38:28.418Z,15.40
2017-09-30T01:40:55.211Z,15.40
2017-09-30T01:43:21.515Z,15.40
2017-09-30T01:45:47.859Z,15.40
2017-09-30T01:48:14.607Z,15.40
2017-09-30T01:50:40.904Z,15.40
2017-09-30T01:53:07.198Z,15.30
2017-09-30T01:55:33.903Z,15.30
2017-09-30T01:58:00.181Z,15.30
2017-09-30T02:00:26.548Z,15.30
2017-09-30T02:02:53.293Z,15.30
2017-09-30T02:05:19.603Z,15.30
2017-09-30T02:07:45.937Z,15.30
2017-09-30T02:10:12.641Z,15.30
2017-09-30T02:12:38.944Z,15.30
2017-09-30T02:15:05.244Z,15.20
2017-09-30T02:17:31.948Z,15.20
2017-09-30T02:19:58.194Z,15.10
2017-09-30T02:22:24.441Z,15.20
2017-09-30T02:24:51.109Z,15.10
2017-09-30T02:27:17.326Z,15.10
2017-09-30T02:29:43.567Z,15.20
2017-09-30T02:32:10.198Z,15.20
2017-09-30T02:34:36.498Z,15.10
2017-09-30T02:37:02.777Z,15.10
2017-09-30T02:39:30.211Z,15.10
2017-09-30T02:41:56.530Z,15.10
2017-09-30T02:44:22.805Z,15.20
2017-09-30T02:46:49.520Z,15.10
2017-09-30T02:49:15.766Z,15.10
2017-09-30T02:51:41.982Z,15.10
2017-09-30T02:54:08.646Z,15.10
2017-09-30T02:56:34.921Z,15.10
2017-09-30T02:59:01.214Z,15.10
2017-09-30T03:01:27.911Z,15.10
2017-09-30T03:03:54.214Z,15.10
2017-09-30T03:06:20.415Z,15.20
2017-09-30T03:08:47.133Z,15.20
2017-09-30T03:11:14.124Z,15.20
2017-09-30T03:13:40.428Z,15.20
2017-09-30T03:16:07.019Z,15.10
2017-09-30T03:18:33.266Z,15.20
2017-09-30T03:20:59.536Z,15.20
2017-09-30T03:23:26.257Z,15.20
2017-09-30T03:25:52.525Z,15.10
2017-09-30T03:28:18.730Z,15.10
2017-09-30T03:30:45.311Z,15.10
2017-09-30T03:33:11.582Z,15.10
2017-09-30T03:35:37.862Z,15.10
2017-09-30T03:38:04.184Z,15.10
2017-09-30T03:40:30.431Z,15.10
2017-09-30T03:42:56.679Z,15.10
2017-09-30T03:45:22.973Z,15.10
2017-09-30T03:47:49.233Z,15.10
2017-09-30T03:50:15.575Z,15.10
2017-09-30T03:52:42.605Z,15.00
2017-09-30T03:55:09.232Z,15.10
2017-09-30T03:57:35.418Z,15.00
2017-09-30T04:00:01.722Z,15.00
2017-09-30T04:02:27.983Z,15.00
2017-09-30T04:04:54.201Z,14.90
2017-09-30T04:07:20.421Z,14.90
2017-09-30T04:09:46.752Z,15.00
2017-09-30T04:12:13.062Z,14.90
2017-09-30T04:14:40.151Z,15.00
2017-09-30T04:17:06.397Z,14.90
2017-09-30T04:19:32.617Z,14.90
2017-09-30T04:21:58.877Z,14.90
2017-09-30T04:24:25.146Z,14.90
2017-09-30T04:26:51.464Z,14.90
2017-09-30T04:29:17.698Z,14.90
2017-09-30T04:31:44.443Z,14.80
2017-09-30T04:34:10.733Z,14.80
2017-09-30T04:36:36.968Z,14.80
2017-09-30T04:39:03.310Z,14.80
2017-09-30T04:41:30.315Z,14.80
2017-09-30T04:43:56.626Z,14.70
2017-09-30T04:46:23.314Z,14.70
2017-09-30T04:48:49.537Z,14.70
2017-09-30T04:51:15.766Z,14.70
2017-09-30T04:53:42.729Z,14.70
2017-09-30T04:56:10.107Z,14.70
2017-09-30T04:58:36.323Z,14.70
2017-09-30T05:01:03.324Z,14.60
2017-09-30T05:03:29.562Z,14.60
2017-09-30T05:05:55.873Z,14.60
2017-09-30T05:08:22.582Z,14.60
2017-09-30T05:10:48.872Z,14.60
2017-09-30T05:13:15.119Z,14.60
2017-09-30T05:15:42.250Z,14.60
2017-09-30T05:18:08.979Z,14.60
2017-09-30T05:20:35.601Z,14.60
2017-09-30T05:23:01.881Z,14.60
2017-09-30T05:25:28.908Z,14.60
2017-09-30T05:27:55.174Z,14.60
2017-09-30T05:30:21.438Z,14.60
2017-09-30T05:32:47.656Z,14.60
2017-09-30T05:35:13.968Z,14.60
2017-09-30T05:37:40.174Z,14.60
2017-09-30T05:40:07.201Z,14.70
2017-09-30T05:42:33.456Z,14.60
2017-09-30T05:45:00.467Z,14.70
2017-09-30T05:47:27.083Z,14.70
2017-09-30T05:49:53.334Z,14.70
2017-09-30T05:52:20.336Z,14.70
2017-09-30T05:54:46.872Z,14.70
2017-09-30T05:57:13.177Z,14.70
2017-09-30T05:59:40.205Z,14.80
2017-09-30T06:02:06.841Z,14.80
2017-09-30T06:04:33.085Z,14.80
2017-09-30T06:07:00.026Z,14.90
2017-09-30T06:09:27.035Z,14.90
2017-09-30T06:11:53.335Z,14.90
2017-09-30T06:14:19.539Z,15.00
2017-09-30T06:16:46.515Z,15.10
2017-09-30T06:19:12.747Z,15.10
2017-09-30T06:21:39.323Z,15.20
2017-09-30T06:24:06.349Z,15.40
2017-09-30T06:26:32.628Z,15.40
2017-09-30T06:28:58.926Z,15.40
2017-09-30T06:31:25.263Z,15.50
2017-09-30T06:33:51.621Z,15.60
2017-09-30T06:36:17.928Z,15.60
2017-09-30T06:38:44.202Z,15.60
2017-09-30T06:41:10.439Z,15.70
2017-09-30T06:43:37.156Z,15.70
2017-09-30T06:46:03.486Z,15.70
2017-09-30T06:48:29.798Z,15.80
2017-09-30T06:50:57.148Z,16.00
2017-09-30T06:53:23.390Z,16.00
2017-09-30T06:55:50.404Z,16.20
2017-09-30T06:58:17.030Z,16.20
2017-09-30T07:00:43.294Z,16.30
2017-09-30T07:03:09.575Z,16.40
2017-09-30T07:05:35.926Z,16.40
2017-09-30T07:08:02.188Z,16.50
2017-09-30T07:10:29.239Z,16.80
2017-09-30T07:12:56.211Z,16.80
2017-09-30T07:15:22.501Z,16.80
2017-09-30T07:17:49.498Z,16.80
2017-09-30T07:20:15.747Z,16.80
2017-09-30T07:22:42.006Z,16.80
2017-09-30T07:25:09.010Z,16.80
2017-09-30T07:27:35.238Z,16.80
2017-09-30T07:30:01.536Z,16.80
2017-09-30T07:32:31.375Z,16.90
2017-09-30T07:34:57.680Z,16.90
2017-09-30T07:37:23.939Z,16.90
2017-09-30T07:39:50.164Z,17.00
2017-09-30T07:42:16.465Z,17.00
2017-09-30T07:44:42.750Z,17.10
2017-09-30T07:47:09.800Z,17.10
2017-09-30T07:49:36.133Z,17.10
2017-09-30T07:52:02.365Z,17.10
2017-09-30T07:54:28.648Z,17.10
2017-09-30T07:56:54.897Z,17.10
2017-09-30T07:59:21.159Z,17.20
2017-09-30T08:01:47.427Z,17.20
2017-09-30T08:04:13.680Z,17.20
2017-09-30T08:06:39.895Z,17.30
2017-09-30T08:09:06.150Z,17.30
2017-09-30T08:11:32.406Z,17.30
2017-09-30T08:13:58.670Z,17.30
2017-09-30T08:16:24.867Z,17.40
2017-09-30T08:18:51.130Z,17.50
2017-09-30T08:21:17.417Z,17.50
2017-09-30T08:23:43.658Z,17.60
2017-09-30T08:26:10.135Z,17.60
2017-09-30T08:28:36.719Z,17.70
2017-09-30T08:31:03.000Z,17.70
2017-09-30T08:33:29.313Z,17.70
2017-09-30T08:35:55.596Z,17.80
2017-09-30T08:38:21.841Z,17.90
2017-09-30T08:40:48.123Z,18.00
2017-09-30T08:43:14.848Z,18.10
2017-09-30T08:45:41.155Z,18.10
2017-09-30T08:48:08.213Z,18.40
2017-09-30T08:50:34.522Z,18.30
2017-09-30T08:53:01.597Z,18.50
2017-09-30T08:55:27.914Z,18.50
2017-09-30T08:57:54.938Z,18.70
2017-09-30T09:00:21.238Z,18.70
2017-09-30T09:02:47.542Z,18.70
2017-09-30T09:05:13.886Z,18.80
2017-09-30T09:07:40.173Z,18.80
2017-09-30T09:10:07.126Z,19.00
2017-09-30T09:12:34.402Z,19.00
2017-09-30T09:15:00.679Z,19.00
2017-09-30T09:17:27.651Z,19.20
2017-09-30T09:19:54.994Z,19.20
2017-09-30T09:22:21.211Z,19.20
2017-09-30T09:24:47.514Z,19.30
2017-09-30T09:27:13.801Z,19.20
2017-09-30T09:29:40.798Z,19.40
2017-09-30T09:32:07.143Z,19.30
2017-09-30T09:34:34.214Z,19.40
2017-09-30T09:37:01.350Z,19.50
2017-09-30T09:39:27.612Z,19.50
2017-09-30T09:41:54.214Z,19.60
2017-09-30T09:44:20.517Z,19.60
2017-09-30T09:46:46.710Z,19.60
2017-09-30T09:49:13.722Z,19.70
2017-09-30T09:51:39.979Z,19.70
2017-09-30T09:54:07.010Z,19.80
2017-09-30T09:56:34.022Z,19.90
2017-09-30T09:59:00.246Z,19.90
2017-09-30T10:01:26.545Z,19.90
2017-09-30T10:03:52.852Z,20.00
2017-09-30T10:06:19.902Z,20.10
2017-09-30T10:08:46.950Z,20.20
2017-09-30T10:11:13.949Z,20.20
2017-09-30T10:13:40.240Z,20.20
2017-09-30T10:16:06.527Z,20.20
2017-09-30T10:18:33.176Z,20.30
2017-09-30T10:20:59.482Z,20.40
2017-09-30T10:23:25.770Z,20.40
2017-09-30T10:25:52.069Z,20.50
2017-09-30T10:28:19.138Z,20.60
2017-09-30T10:30:46.173Z,20.50
2017-09-30T10:33:13.560Z,20.60
2017-09-30T10:35:39.871Z,20.60
2017-09-30T10:38:06.903Z,20.70
2017-09-30T10:40:33.888Z,20.80
2017-09-30T10:43:00.140Z,20.80
2017-09-30T10:45:26.403Z,20.90
2017-09-30T10:47:52.622Z,21.00
2017-09-30T10:50:18.834Z,21.00
2017-09-30T10:52:45.087Z,21.10
2017-09-30T10:55:11.357Z,21.00
2017-09-30T10:57:37.654Z,21.00
2017-09-30T11:00:04.655Z,21.00
2017-09-30T11:02:31.261Z,21.00
2017-09-30T11:04:57.530Z,21.10
2017-09-30T11:07:23.857Z,21.10
2017-09-30T11:09:50.103Z,21.10
2017-09-30T11:12:16.396Z,21.20
2017-09-30T11:14:42.718Z,21.10
2017-09-30T11:17:09.050Z,21.00
2017-09-30T11:19:35.376Z,21.00
2017-09-30T11:22:01.657Z,21.00
2017-09-30T11:24:27.954Z,21.10
2017-09-30T11:26:54.212Z,21.10
2017-09-30T11:29:20.489Z,21.10
2017-09-30T11:31:46.760Z,21.10
2017-09-30T11:34:13.024Z,21.10
2017-09-30T11:36:40.092Z,21.10
2017-09-30T11:39:06.710Z,21.10
2017-09-30T11:41:33.733Z,21.20
2017-09-30T11:43:59.943Z,21.20
2017-09-30T11:46:26.175Z,21.30
2017-09-30T11:48:52.414Z,21.30
2017-09-30T11:51:18.695Z,21.30
2017-09-30T11:53:44.940Z,21.30
2017-09-30T11:56:11.170Z,21.30
2017-09-30T11:58:37.480Z,21.30
2017-09-30T12:01:03.821Z,21.30
2017-09-30T12:03:30.137Z,21.30
2017-09-30T12:05:57.117Z,21.30
2017-09-30T12:08:23.739Z,21.30
2017-09-30T12:10:49.977Z,21.20
2017-09-30T12:13:16.286Z,21.20
2017-09-30T12:15:42.891Z,21.20
2017-09-30T12:18:09.190Z,21.20
2017-09-30T12:20:35.474Z,21.20
2017-09-30T12:23:02.807Z,21.10
2017-09-30T12:25:29.047Z,21.10
2017-09-30T12:27:56.034Z,21.10
2017-09-30T12:30:22.338Z,21.10
2017-09-30T12:32:48.656Z,21.10
2017-09-30T12:35:15.635Z,21.30
2017-09-30T12:37:41.925Z,21.30
2017-09-30T12:40:08.945Z,21.40
2017-09-30T12:42:35.239Z,21.40
2017-09-30T12:45:01.580Z,21.50
2017-09-30T12:47:27.816Z,21.50
2017-09-30T12:49:54.079Z,21.60
2017-09-30T12:52:21.055Z,21.80
2017-09-30T12:54:48.052Z,21.80
2017-09-30T12:57:14.299Z,21.80
2017-09-30T12:59:40.602Z,21.90
2017-09-30T13:02:06.859Z,22.00
2017-09-30T13:04:33.124Z,22.00
2017-09-30T13:06:59.417Z,22.00
2017-09-30T13:09:25.720Z,21.90
2017-09-30T13:11:51.920Z,22.00
2017-09-30T13:14:18.184Z,22.10
2017-09-30T13:16:44.464Z,22.10
2017-09-30T13:19:11.483Z,22.10
2017-09-30T13:21:37.798Z,22.10
2017-09-30T13:24:04.088Z,22.10
2017-09-30T13:26:30.361Z,22.10
2017-09-30T13:28:56.612Z,22.20
2017-09-30T13:31:22.883Z,22.40
2017-09-30T13:33:49.172Z,22.50
2017-09-30T13:36:15.466Z,22.50
2017-09-30T13:38:41.766Z,22.60
2017-09-30T13:41:08.054Z,22.60
2017-09-30T13:43:34.722Z,22.60
2017-09-30T13:46:01.023Z,22.70
2017-09-30T13:48:27.337Z,22.90
2017-09-30T13:50:53.627Z,23.10
2017-09-30T13:53:19.883Z,23.20
2017-09-30T13:55:46.115Z,23.20
2017-09-30T13:58:12.440Z,23.10
2017-09-30T14:00:38.709Z,23.10
2017-09-30T14:03:04.974Z,23.00
2017-09-30T14:05:31.286Z,22.90
2017-09-30T14:07:58.274Z,23.10
2017-09-30T14:10:24.495Z,23.10
2017-09-30T14:12:50.846Z,23.20
2017-09-30T14:15:17.160Z,23.30
2017-09-30T14:17:43.410Z,23.30
2017-09-30T14:20:09.709Z,23.40
2017-09-30T14:22:35.965Z,23.40
2017-09-30T14:25:02.237Z,23.60
2017-09-30T14:27:29.248Z,24.40
2017-09-30T14:29:55.516Z,24.40
2017-09-30T14:32:21.841Z,24.60
2017-09-30T14:34:48.845Z,24.50
2017-09-30T14:37:15.161Z,24.50
2017-09-30T14:39:41.444Z,24.50
2017-09-30T14:42:08.458Z,24.80
2017-09-30T14:44:34.774Z,24.80
2017-09-30T14:47:01.032Z,25.20
2017-09-30T14:49:27.323Z,25.10
2017-09-30T14:51:53.569Z,24.90
2017-09-30T14:54:19.858Z,24.70
2017-09-30T14:56:46.144Z,24.90
2017-09-30T14:59:12.439Z,25.00
2017-09-30T15:01:38.727Z,24.90
2017-09-30T15:04:05.765Z,24.90
2017-09-30T15:06:32.769Z,25.00
2017-09-30T15:08:58.991Z,24.90
2017-09-30T15:11:25.254Z,24.80
2017-09-30T15:13:51.558Z,24.60
2017-09-30T15:16:17.838Z,24.20
2017-09-30T15:18:44.890Z,23.80
2017-09-30T15:21:11.910Z,23.60
2017-09-30T15:23:38.177Z,23.60
2017-09-30T15:26:04.489Z,23.40
2017-09-30T15:28:38.386Z,22.90
2017-09-30T15:31:04.688Z,22.90
2017-09-30T15:33:31.007Z,22.70
2017-09-30T15:35:57.252Z,22.50
2017-09-30T15:38:23.518Z,22.50
2017-09-30T15:40:50.479Z,22.30
2017-09-30T15:43:17.484Z,22.20
2017-09-30T15:45:44.507Z,22.10
2017-09-30T15:48:10.783Z,22.10
2017-09-30T15:50:37.022Z,22.10
2017-09-30T15:53:04.080Z,21.90
2017-09-30T15:55:30.339Z,21.90
2017-09-30T15:57:56.573Z,21.90
2017-09-30T16:00:22.843Z,21.80
2017-09-30T16:02:49.140Z,21.70
2017-09-30T16:05:15.410Z,21.60
2017-09-30T16:07:42.414Z,21.30
2017-09-30T16:10:08.678Z,21.30
2017-09-30T16:12:35.716Z,21.10
2017-09-30T16:15:02.045Z,21.10
2017-09-30T16:17:28.358Z,21.00
2017-09-30T16:19:54.640Z,20.90
2017-09-30T16:22:21.624Z,20.70
2017-09-30T16:24:47.902Z,20.70
2017-09-30T16:27:14.941Z,20.60
2017-09-30T16:29:41.956Z,20.50
2017-09-30T16:32:08.212Z,20.50
2017-09-30T16:34:34.521Z,20.50
2017-09-30T16:37:00.779Z,20.40
2017-09-30T16:39:27.108Z,20.30
2017-09-30T16:41:54.141Z,20.20
2017-09-30T16:44:20.364Z,20.20
2017-09-30T16:46:46.618Z,20.10
2017-09-30T16:49:13.617Z,20.00
2017-09-30T16:51:39.833Z,20.00
2017-09-30T16:54:06.108Z,19.90
2017-09-30T16:56:32.418Z,19.90
2017-09-30T16:58:58.750Z,19.80
2017-09-30T17:01:25.030Z,19.70
2017-09-30T17:03:52.046Z,19.60
2017-09-30T17:06:19.061Z,19.50
2017-09-30T17:08:45.344Z,19.50
2017-09-30T17:11:12.405Z,19.40
2017-09-30T17:13:38.658Z,19.30
2017-09-30T17:16:04.941Z,19.30
2017-09-30T17:18:31.971Z,19.30
2017-09-30T17:20:58.263Z,19.20
2017-09-30T17:23:24.835Z,19.20
2017-09-30T17:25:51.100Z,19.20
2017-09-30T17:28:17.364Z,19.20
2017-09-30T17:30:43.620Z,19.10
2017-09-30T17:33:09.848Z,19.10
2017-09-30T17:35:36.181Z,19.10
2017-09-30T17:38:02.481Z,19.10
2017-09-30T17:40:28.825Z,19.10
2017-09-30T17:42:55.085Z,19.00
2017-09-30T17:45:22.102Z,19.00
2017-09-30T17:47:48.340Z,19.00
2017-09-30T17:50:14.660Z,19.00
2017-09-30T17:52:40.946Z,19.00
2017-09-30T17:55:07.937Z,18.90
2017-09-30T17:57:34.243Z,18.90
2017-09-30T18:00:00.540Z,18.90
2017-09-30T18:02:27.732Z,18.80
2017-09-30T18:04:54.061Z,18.70
2017-09-30T18:07:20.346Z,18.70
2017-09-30T18:09:47.038Z,18.70
2017-09-30T18:12:14.214Z,18.70
2017-09-30T18:14:40.531Z,18.70
2017-09-30T18:17:06.815Z,18.70
2017-09-30T18:19:33.103Z,18.70
2017-09-30T18:21:59.382Z,18.70
2017-09-30T18:24:25.750Z,18.70
2017-09-30T18:26:52.049Z,18.70
2017-09-30T18:29:18.358Z,18.60
2017-09-30T18:31:45.794Z,18.60
2017-09-30T18:34:12.098Z,18.60
2017-09-30T18:36:38.413Z,18.60
2017-09-30T18:39:04.680Z,18.60
2017-09-30T18:41:30.950Z,18.60
2017-09-30T18:43:57.270Z,18.40
2017-09-30T18:46:24.292Z,18.60
2017-09-30T18:48:51.333Z,18.50
2017-09-30T18:51:17.665Z,18.50
2017-09-30T18:53:44.769Z,18.40
2017-09-30T18:56:11.477Z,18.50
2017-09-30T18:58:38.517Z,18.50
2017-09-30T19:01:05.532Z,18.50
2017-09-30T19:03:31.879Z,18.50
2017-09-30T19:05:58.171Z,18.50
2017-09-30T19:08:24.790Z,18.50
2017-09-30T19:10:51.073Z,18.50
2017-09-30T19:13:17.337Z,18.50
2017-09-30T19:15:43.613Z,18.50
2017-09-30T19:18:09.862Z,18.50
2017-09-30T19:20:36.163Z,18.40
2017-09-30T19:23:02.421Z,18.40
2017-09-30T19:25:28.712Z,18.30
2017-09-30T19:27:55.008Z,18.40
2017-09-30T19:30:22.005Z,18.30
2017-09-30T19:32:48.786Z,18.30
2017-09-30T19:35:15.979Z,18.30
2017-09-30T19:37:42.319Z,18.20
2017-09-30T19:40:08.660Z,18.30
2017-09-30T19:42:34.918Z,18.30
2017-09-30T19:45:01.185Z,18.40
2017-09-30T19:47:27.542Z,18.40
2017-09-30T19:49:53.788Z,18.50
2017-09-30T19:52:20.055Z,18.50
2017-09-30T19:54:47.178Z,18.60
2017-09-30T19:57:13.493Z,18.60
2017-09-30T19:59:39.762Z,18.50
2017-09-30T20:02:07.250Z,18.50
2017-09-30T20:04:33.567Z,18.40
2017-09-30T20:06:59.828Z,18.40
2017-09-30T20:09:26.419Z,18.40
2017-09-30T20:11:53.423Z,18.30
2017-09-30T20:14:19.711Z,18.30
2017-09-30T20:16:46.324Z,18.20
2017-09-30T20:19:12.582Z,18.10
2017-09-30T20:21:38.917Z,18.10
2017-09-30T20:24:05.195Z,18.00
2017-09-30T20:26:31.466Z,17.80
2017-09-30T20:28:57.826Z,17.80
2017-09-30T20:31:24.065Z,17.70
2017-09-30T20:33:50.352Z,17.70
2017-09-30T20:36:16.636Z,17.60
2017-09-30T20:38:43.694Z,17.60
2017-09-30T20:41:09.994Z,17.60
2017-09-30T20:43:36.260Z,17.50
2017-09-30T20:46:02.556Z,17.50
2017-09-30T20:48:28.763Z,17.40
2017-09-30T20:50:55.035Z,17.30
2017-09-30T20:53:21.279Z,17.30
2017-09-30T20:55:47.578Z,17.40
2017-09-30T20:58:13.806Z,17.30
2017-09-30T21:00:40.090Z,17.40
2017-09-30T21:03:07.126Z,17.30
2017-09-30T21:05:34.118Z,17.20
2017-09-30T21:08:00.394Z,17.20
2017-09-30T21:10:26.705Z,17.10
2017-09-30T21:12:53.023Z,17.10
2017-09-30T21:15:19.309Z,17.10
2017-09-30T21:17:45.543Z,17.00
2017-09-30T21:20:11.813Z,17.00
2017-09-30T21:22:38.105Z,17.00
2017-09-30T21:25:04.345Z,17.00
2017-09-30T21:27:30.616Z,17.00
2017-09-30T21:29:56.949Z,16.90
2017-09-30T21:32:23.950Z,17.00
2017-09-30T21:34:50.204Z,17.00
2017-09-30T21:37:16.471Z,17.00
2017-09-30T21:39:43.458Z,17.00
2017-09-30T21:42:09.695Z,16.90
2017-09-30T21:44:35.980Z,16.90
2017-09-30T21:47:03.034Z,16.80
2017-09-30T21:49:30.031Z,16.80
2017-09-30T21:51:56.353Z,16.80
2017-09-30T21:54:22.667Z,16.80
2017-09-30T21:56:48.906Z,16.70
2017-09-30T21:59:15.629Z,16.70
2017-09-30T22:01:41.929Z,16.60
2017-09-30T22:04:08.938Z,16.40
2017-09-30T22:06:35.507Z,16.30
2017-09-30T22:09:01.736Z,16.30
2017-09-30T22:11:27.995Z,16.40
2017-09-30T22:13:54.595Z,16.30
2017-09-30T22:16:20.857Z,16.30
2017-09-30T22:18:47.105Z,16.20
2017-09-30T22:21:13.398Z,16.20
2017-09-30T22:23:40.382Z,16.10
2017-09-30T22:26:06.672Z,16.10
2017-09-30T22:28:33.680Z,16.00
2017-09-30T22:30:59.929Z,16.00
2017-09-30T22:33:26.178Z,16.00
2017-09-30T22:35:52.491Z,15.90
2017-09-30T22:38:19.518Z,15.80
2017-09-30T22:40:45.850Z,15.70
2017-09-30T22:43:12.513Z,15.80
2017-09-30T22:45:38.727Z,15.70
2017-09-30T22:48:04.999Z,15.60
2017-09-30T22:50:31.618Z,15.60
2017-09-30T22:52:57.858Z,15.60
2017-09-30T22:55:24.867Z,15.70
2017-09-30T22:57:51.180Z,15.70
2017-09-30T23:00:17.448Z,15.70
2017-09-30T23:02:43.741Z,15.70
2017-09-30T23:05:10.019Z,15.50
2017-09-30T23:07:37.049Z,15.60
2017-09-30T23:10:03.276Z,15.60
2017-09-30T23:12:29.586Z,15.60
2017-09-30T23:14:55.868Z,15.70
2017-09-30T23:17:22.149Z,15.60
2017-09-30T23:19:49.726Z,15.50
2017-09-30T23:22:16.689Z,15.60
2017-09-30T23:24:43.746Z,15.60
2017-09-30T23:27:10.359Z,15.50
2017-09-30T23:29:36.598Z,15.50
2017-09-30T23:32:03.612Z,15.60
2017-09-30T23:34:29.934Z,15.60
2017-09-30T23:36:56.220Z,15.60
2017-09-30T23:39:23.243Z,15.60
2017-09-30T23:41:50.642Z,15.60
2017-09-30T23:44:16.872Z,15.60
2017-09-30T23:46:43.158Z,15.60
2017-09-30T23:49:10.607Z,15.50
2017-09-30T23:51:36.873Z,15.50
2017-09-30T23:54:03.149Z,15.50
2017-09-30T23:56:29.402Z,15.50
2017-09-30T23:58:56.431Z,15.50
